Time;durP1;ratioP1;P1;durP2;ratioP2;P2;SDS_P1;SDS_P2;PMS_P1;PMS_P2;Temp;Humidity;BMP_temperature;BMP_pressure;BME280_temperature;BME280_humidity;BME280_pressure;Samples;Min_cycle;Max_cycle;Signal;HPM_P1;HPM_P2
2022/01/31 00:00:25;;;;;;;24.63;4.22;;;;;;;;;;5052418;28;20451;-77
2022/01/31 00:02:51;;;;;;;22.67;5.10;;;;;;;;;;5052633;28;20055;-77
2022/01/31 00:05:17;;;;;;;28.58;5.45;;;;;;;;;;5052818;28;20048;-77
2022/01/31 00:07:43;;;;;;;31.85;6.15;;;;;;;;;;5052635;28;20101;-77
2022/01/31 00:10:11;;;;;;;22.75;5.07;;;;;;;;;;5052649;28;20181;-77
2022/01/31 00:12:50;;;;;;;27.00;5.32;;;;;;;;;;5052783;28;20049;-76
2022/01/31 00:15:16;;;;;;;20.75;4.65;;;;;;;;;;5052437;28;20052;-76
2022/01/31 00:17:42;;;;;;;20.88;5.10;;;;;;;;;;5036139;28;20052;-76
2022/01/31 00:20:09;;;;;;;28.33;5.78;;;;;;;;;;5052632;28;20049;-76
2022/01/31 00:22:35;;;;;;;22.70;5.45;;;;;;;;;;5052434;28;20052;-76
2022/01/31 00:25:00;;;;;;;23.65;5.05;;;;;;;;;;5051438;28;20428;-76
2022/01/31 00:27:26;;;;;;;21.27;5.38;;;;;;;;;;5052368;28;20044;-77
2022/01/31 00:29:52;;;;;;;18.63;4.57;;;;;;;;;;5051941;28;20127;-76
2022/01/31 00:32:18;;;;;;;30.67;5.90;;;;;;;;;;5052338;28;20334;-76
2022/01/31 00:34:44;;;;;;;21.35;5.80;;;;;;;;;;5052526;28;20045;-76
2022/01/31 00:37:10;;;;;;;22.40;5.15;;;;;;;;;;5052582;28;20053;-77
2022/01/31 00:39:37;;;;;;;20.15;5.40;;;;;;;;;;5052480;28;20477;-76
2022/01/31 00:42:05;;;;;;;20.10;5.35;;;;;;;;;;5052153;28;20114;-77
2022/01/31 00:44:42;;;;;;;25.27;5.70;;;;;;;;;;5035233;28;20059;-76
2022/01/31 00:47:25;;;;;;;21.38;5.55;;;;;;;;;;5052197;28;20070;-77
2022/01/31 00:50:07;;;;;;;18.70;5.68;;;;;;;;;;5052168;28;20131;-77
2022/01/31 00:52:33;;;;;;;19.95;6.30;;;;;;;;;;5070239;28;20060;-77
2022/01/31 00:54:59;;;;;;;30.23;6.75;;;;;;;;;;5051679;28;20098;-77
2022/01/31 00:57:25;;;;;;;17.48;6.10;;;;;;;;;;5070088;28;20052;-76
2022/01/31 00:59:52;;;;;;;20.38;5.68;;;;;;;;;;5051849;28;20049;-76
2022/01/31 01:02:21;;;;;;;21.52;6.35;;;;;;;;;;5052609;28;20416;-76
2022/01/31 01:04:47;;;;;;;26.58;6.85;;;;;;;;;;5051840;28;20139;-76
2022/01/31 01:07:14;;;;;;;21.52;6.22;;;;;;;;;;5051856;28;20091;-76
2022/01/31 01:09:41;;;;;;;29.25;6.40;;;;;;;;;;5052180;28;20416;-76
2022/01/31 01:12:08;;;;;;;20.55;6.30;;;;;;;;;;5052188;28;20539;-77
2022/01/31 01:14:34;;;;;;;23.20;6.07;;;;;;;;;;5051618;28;20056;-76
2022/01/31 01:17:00;;;;;;;15.18;5.57;;;;;;;;;;5052116;28;20040;-77
2022/01/31 01:19:26;;;;;;;23.90;6.72;;;;;;;;;;5052028;28;20052;-77
2022/01/31 01:21:52;;;;;;;20.27;6.65;;;;;;;;;;5051842;28;20052;-76
2022/01/31 01:24:18;;;;;;;19.55;6.25;;;;;;;;;;5069447;28;20044;-76
2022/01/31 01:26:44;;;;;;;20.58;6.40;;;;;;;;;;5051925;28;20351;-76
2022/01/31 01:29:10;;;;;;;23.33;7.05;;;;;;;;;;5034756;28;20078;-77
2022/01/31 01:31:37;;;;;;;20.80;6.57;;;;;;;;;;5051807;28;20068;-77
2022/01/31 01:34:03;;;;;;;18.00;6.53;;;;;;;;;;5051694;28;20110;-77
2022/01/31 01:36:31;;;;;;;21.77;7.05;;;;;;;;;;5052598;28;20045;-77
2022/01/31 01:38:57;;;;;;;24.50;7.40;;;;;;;;;;5055457;28;20127;-77
2022/01/31 01:41:23;;;;;;;26.58;7.55;;;;;;;;;;5055875;28;20144;-77
2022/01/31 01:43:49;;;;;;;24.00;7.85;;;;;;;;;;5055144;28;20052;-77
2022/01/31 01:46:15;;;;;;;21.17;8.60;;;;;;;;;;5055591;28;20056;-77
2022/01/31 01:48:41;;;;;;;26.67;8.55;;;;;;;;;;5055175;28;20052;-77
2022/01/31 01:51:07;;;;;;;22.48;8.93;;;;;;;;;;5055513;28;20044;-77
2022/01/31 01:53:33;;;;;;;29.05;9.18;;;;;;;;;;5055287;28;20143;-80
2022/01/31 01:55:59;;;;;;;33.28;11.50;;;;;;;;;;5054499;28;20056;-79
2022/01/31 01:58:27;;;;;;;32.65;11.95;;;;;;;;;;5055262;28;20057;-77
2022/01/31 02:01:01;;;;;;;31.55;11.43;;;;;;;;;;5055290;28;20048;-79
2022/01/31 02:03:28;;;;;;;32.95;12.57;;;;;;;;;;5055463;28;20063;-78
2022/01/31 02:05:54;;;;;;;27.98;12.05;;;;;;;;;;5054981;28;20050;-78
2022/01/31 02:08:20;;;;;;;27.95;13.15;;;;;;;;;;5055038;28;20040;-78
2022/01/31 02:10:46;;;;;;;25.83;12.85;;;;;;;;;;5038217;28;20045;-78
2022/01/31 02:13:15;;;;;;;36.20;13.75;;;;;;;;;;5055074;28;20052;-79
2022/01/31 02:15:41;;;;;;;28.85;13.43;;;;;;;;;;5038294;28;20048;-79
2022/01/31 02:18:07;;;;;;;32.45;13.65;;;;;;;;;;5054745;28;20048;-79
2022/01/31 02:20:41;;;;;;;31.50;13.60;;;;;;;;;;5054751;28;20491;-79
2022/01/31 02:23:07;;;;;;;31.63;13.90;;;;;;;;;;5054723;28;20092;-79
2022/01/31 02:25:34;;;;;;;35.90;14.15;;;;;;;;;;5054227;28;20084;-79
2022/01/31 02:28:00;;;;;;;28.20;12.95;;;;;;;;;;5054465;28;20044;-79
2022/01/31 02:30:26;;;;;;;30.45;14.80;;;;;;;;;;5054736;28;20040;-79
2022/01/31 02:32:52;;;;;;;34.20;14.77;;;;;;;;;;5054673;28;20095;-79
2022/01/31 02:35:18;;;;;;;38.33;15.73;;;;;;;;;;5038027;28;20503;-79
2022/01/31 02:37:44;;;;;;;38.08;16.05;;;;;;;;;;5055202;28;20124;-79
2022/01/31 02:40:10;;;;;;;31.80;15.80;;;;;;;;;;5053868;28;20520;-78
2022/01/31 02:42:36;;;;;;;39.67;15.13;;;;;;;;;;5037519;28;20048;-79
2022/01/31 02:45:05;;;;;;;32.63;15.63;;;;;;;;;;5052341;28;20052;-78
2022/01/31 02:47:36;;;;;;;35.55;15.32;;;;;;;;;;5034306;28;20076;-79
2022/01/31 02:50:06;;;;;;;32.33;15.27;;;;;;;;;;5034543;28;20049;-79
2022/01/31 02:52:34;;;;;;;34.75;15.02;;;;;;;;;;5034228;28;20103;-78
2022/01/31 02:55:00;;;;;;;35.75;15.65;;;;;;;;;;5039042;28;20050;-78
2022/01/31 02:57:26;;;;;;;31.83;14.90;;;;;;;;;;5034971;28;20061;-79
2022/01/31 02:59:52;;;;;;;30.58;14.82;;;;;;;;;;5038043;28;20127;-79
2022/01/31 03:02:18;;;;;;;35.65;16.08;;;;;;;;;;5067497;28;20323;-79
2022/01/31 03:04:44;;;;;;;37.55;14.70;;;;;;;;;;5045745;28;20084;-79
2022/01/31 03:07:10;;;;;;;29.15;14.85;;;;;;;;;;5017257;28;20528;-80
2022/01/31 03:09:36;;;;;;;27.42;13.95;;;;;;;;;;5033512;28;20402;-80
2022/01/31 03:12:02;;;;;;;28.77;13.77;;;;;;;;;;5033835;28;20049;-80
2022/01/31 03:14:28;;;;;;;25.00;13.30;;;;;;;;;;5017363;28;20051;-80
2022/01/31 03:16:54;;;;;;;26.63;13.57;;;;;;;;;;5017196;28;20044;-80
2022/01/31 03:19:20;;;;;;;23.40;12.48;;;;;;;;;;5033822;28;20067;-80
2022/01/31 03:21:47;;;;;;;20.00;11.63;;;;;;;;;;5017212;28;20049;-80
2022/01/31 03:24:13;;;;;;;20.10;11.23;;;;;;;;;;5016865;28;20071;-79
2022/01/31 03:26:40;;;;;;;20.13;10.52;;;;;;;;;;5017032;28;20049;-80
2022/01/31 03:29:06;;;;;;;15.70;10.77;;;;;;;;;;5033479;28;20135;-80
2022/01/31 03:31:32;;;;;;;22.75;11.38;;;;;;;;;;5016940;28;20041;-80
2022/01/31 03:33:59;;;;;;;18.17;11.13;;;;;;;;;;5033310;28;20171;-80
2022/01/31 03:36:25;;;;;;;17.08;10.77;;;;;;;;;;5033523;28;20103;-80
2022/01/31 03:38:52;;;;;;;18.67;10.63;;;;;;;;;;5032705;28;20053;-80
2022/01/31 03:41:19;;;;;;;19.17;11.50;;;;;;;;;;5033595;28;20116;-81
2022/01/31 03:43:45;;;;;;;21.17;11.77;;;;;;;;;;5033809;28;20056;-80
2022/01/31 03:46:11;;;;;;;20.20;12.15;;;;;;;;;;5033275;28;20048;-81
2022/01/31 03:48:38;;;;;;;21.52;12.10;;;;;;;;;;5033208;28;20041;-80
2022/01/31 03:51:04;;;;;;;20.77;11.82;;;;;;;;;;5033134;28;20535;-80
2022/01/31 03:53:30;;;;;;;21.25;12.25;;;;;;;;;;5032724;28;20057;-80
2022/01/31 03:55:56;;;;;;;21.55;10.65;;;;;;;;;;5032801;28;20058;-80
2022/01/31 03:58:22;;;;;;;24.02;11.52;;;;;;;;;;5033006;28;20099;-80
2022/01/31 04:00:49;;;;;;;21.00;12.38;;;;;;;;;;5032724;28;20032;-80
2022/01/31 04:03:15;;;;;;;22.08;12.38;;;;;;;;;;5032819;28;20458;-78
2022/01/31 04:05:41;;;;;;;19.77;11.40;;;;;;;;;;5032843;28;20036;-78
2022/01/31 04:08:08;;;;;;;25.30;11.32;;;;;;;;;;5032206;28;20052;-79
2022/01/31 04:10:34;;;;;;;23.88;11.82;;;;;;;;;;5016418;28;20107;-78
2022/01/31 04:13:00;;;;;;;21.42;11.57;;;;;;;;;;5032696;28;20534;-78
2022/01/31 04:15:26;;;;;;;24.20;11.88;;;;;;;;;;5016576;28;20393;-80
2022/01/31 04:17:52;;;;;;;23.38;11.85;;;;;;;;;;5032660;28;20076;-77
2022/01/31 04:20:19;;;;;;;26.15;12.02;;;;;;;;;;5032656;28;20056;-78
2022/01/31 04:22:53;;;;;;;23.67;12.18;;;;;;;;;;5031943;28;20048;-78
2022/01/31 04:28:05;;;;;;;23.67;11.27;;;;;;;;;;5032526;28;20045;-78
2022/01/31 04:30:35;;;;;;;34.67;12.27;;;;;;;;;;5032688;28;20052;-79
2022/01/31 04:33:01;;;;;;;23.45;10.82;;;;;;;;;;5015701;28;20041;-79
2022/01/31 04:35:27;;;;;;;28.73;10.90;;;;;;;;;;5032020;28;20202;-79
2022/01/31 04:37:53;;;;;;;23.77;10.07;;;;;;;;;;5032393;28;20520;-79
2022/01/31 04:40:19;;;;;;;26.77;9.95;;;;;;;;;;5032258;28;20124;-79
2022/01/31 04:42:46;;;;;;;29.25;9.30;;;;;;;;;;5032569;28;20053;-79
2022/01/31 04:45:12;;;;;;;24.02;7.97;;;;;;;;;;5016283;28;20405;-79
2022/01/31 04:47:38;;;;;;;25.80;7.65;;;;;;;;;;5032536;28;20048;-79
2022/01/31 04:50:05;;;;;;;29.33;6.82;;;;;;;;;;5031779;28;20649;-79
2022/01/31 04:52:31;;;;;;;33.60;6.20;;;;;;;;;;5032406;28;20056;-79
2022/01/31 04:54:57;;;;;;;32.65;5.85;;;;;;;;;;5032050;28;20094;-78
2022/01/31 04:57:24;;;;;;;14.15;3.00;;;;;;;;;;5015627;28;20049;-79
2022/01/31 04:59:51;;;;;;;10.25;1.95;;;;;;;;;;5032546;28;20052;-78
2022/01/31 05:02:17;;;;;;;8.98;1.83;;;;;;;;;;5032089;28;20497;-78
2022/01/31 05:04:43;;;;;;;11.38;2.08;;;;;;;;;;5031835;28;20044;-78
2022/01/31 05:07:09;;;;;;;10.00;2.25;;;;;;;;;;5031984;28;20090;-79
2022/01/31 05:09:35;;;;;;;15.20;3.67;;;;;;;;;;5032211;28;20044;-79
2022/01/31 05:12:01;;;;;;;20.73;3.97;;;;;;;;;;5019461;28;20516;-78
2022/01/31 05:14:27;;;;;;;15.52;2.78;;;;;;;;;;5036397;28;20607;-78
2022/01/31 05:16:53;;;;;;;26.42;4.05;;;;;;;;;;5036106;28;20044;-79
2022/01/31 05:19:19;;;;;;;23.60;3.47;;;;;;;;;;5035888;28;20055;-80
2022/01/31 05:21:45;;;;;;;29.08;3.97;;;;;;;;;;5035939;28;20409;-78
2022/01/31 05:24:11;;;;;;;19.95;2.95;;;;;;;;;;5036213;28;20041;-78
2022/01/31 05:26:37;;;;;;;22.27;3.35;;;;;;;;;;5035654;28;20080;-78
2022/01/31 05:29:03;;;;;;;20.65;3.60;;;;;;;;;;5035776;28;20405;-78
2022/01/31 05:31:29;;;;;;;32.08;3.63;;;;;;;;;;5019685;28;20394;-78
2022/01/31 05:33:55;;;;;;;21.25;2.50;;;;;;;;;;5035195;28;20041;-79
2022/01/31 05:36:22;;;;;;;16.02;2.47;;;;;;;;;;5019239;28;20076;-79
2022/01/31 05:38:48;;;;;;;24.13;3.17;;;;;;;;;;5035545;28;20128;-79
2022/01/31 05:41:18;;;;;;;30.38;3.88;;;;;;;;;;5019042;28;20493;-79
2022/01/31 05:43:45;;;;;;;14.95;2.70;;;;;;;;;;5035468;28;20056;-78
2022/01/31 05:46:11;;;;;;;25.45;3.22;;;;;;;;;;5035332;28;20048;-78
2022/01/31 05:48:37;;;;;;;21.02;2.85;;;;;;;;;;5035054;28;20045;-78
2022/01/31 05:51:03;;;;;;;28.52;3.53;;;;;;;;;;5035359;28;20072;-79
2022/01/31 05:53:32;;;;;;;27.13;3.50;;;;;;;;;;5035339;28;20128;-79
2022/01/31 05:55:58;;;;;;;18.08;2.05;;;;;;;;;;5035021;28;20095;-79
2022/01/31 05:58:24;;;;;;;14.88;2.20;;;;;;;;;;5035092;28;20057;-79
2022/01/31 06:00:50;;;;;;;16.23;2.22;;;;;;;;;;5035067;28;20044;-80
2022/01/31 06:03:16;;;;;;;10.07;1.30;;;;;;;;;;5034810;28;20053;-79
2022/01/31 06:05:42;;;;;;;7.47;1.13;;;;;;;;;;5035224;28;20101;-79
2022/01/31 06:08:08;;;;;;;7.47;1.33;;;;;;;;;;5034930;28;20041;-78
2022/01/31 06:10:41;;;;;;;16.85;2.42;;;;;;;;;;5035192;28;20375;-78
2022/01/31 06:13:07;;;;;;;11.02;1.20;;;;;;;;;;5034853;28;20049;-78
2022/01/31 06:15:33;;;;;;;6.93;1.38;;;;;;;;;;5035051;28;20059;-78
2022/01/31 06:17:59;;;;;;;4.60;0.52;;;;;;;;;;5034356;28;20045;-78
2022/01/31 06:20:25;;;;;;;12.38;1.73;;;;;;;;;;5035156;28;20068;-78
2022/01/31 06:22:52;;;;;;;3.63;0.95;;;;;;;;;;5034308;28;20140;-78
2022/01/31 06:25:19;;;;;;;7.15;1.13;;;;;;;;;;5018098;28;20135;-79
2022/01/31 06:27:45;;;;;;;4.05;0.80;;;;;;;;;;5018463;28;20037;-79
2022/01/31 06:30:12;;;;;;;6.38;0.70;;;;;;;;;;5034780;28;20053;-78
2022/01/31 06:32:38;;;;;;;6.45;0.98;;;;;;;;;;5034284;28;20136;-79
2022/01/31 06:35:05;;;;;;;5.80;1.00;;;;;;;;;;5034331;28;20045;-79
2022/01/31 06:37:31;;;;;;;8.35;0.98;;;;;;;;;;5034598;28;20049;-78
2022/01/31 06:39:57;;;;;;;10.45;1.23;;;;;;;;;;5034475;28;20047;-78
2022/01/31 06:42:23;;;;;;;4.50;0.90;;;;;;;;;;5034762;28;20124;-78
2022/01/31 06:44:49;;;;;;;7.97;1.20;;;;;;;;;;5034553;28;20052;-78
2022/01/31 06:47:15;;;;;;;9.80;1.27;;;;;;;;;;5033958;28;20057;-78
2022/01/31 06:49:41;;;;;;;15.75;2.10;;;;;;;;;;5034400;28;20055;-78
2022/01/31 06:52:07;;;;;;;19.67;1.85;;;;;;;;;;5034104;28;20045;-78
2022/01/31 06:54:33;;;;;;;10.07;1.70;;;;;;;;;;5034262;28;20053;-79
2022/01/31 06:57:01;;;;;;;12.13;2.03;;;;;;;;;;5033858;28;20049;-79
2022/01/31 06:59:27;;;;;;;6.13;1.50;;;;;;;;;;5034164;28;20074;-79
2022/01/31 07:01:53;;;;;;;12.82;1.73;;;;;;;;;;5033868;28;20048;-79
2022/01/31 07:04:19;;;;;;;11.70;1.70;;;;;;;;;;5034215;28;20493;-79
2022/01/31 07:06:44;;;;;;;11.88;1.58;;;;;;;;;;5017581;28;20045;-79
2022/01/31 07:09:11;;;;;;;26.88;4.57;;;;;;;;;;5033671;28;20055;-79
2022/01/31 07:11:40;;;;;;;12.20;1.88;;;;;;;;;;5033983;28;20092;-80
2022/01/31 07:14:23;;;;;;;11.50;1.27;;;;;;;;;;5033658;28;20049;-79
2022/01/31 07:16:49;;;;;;;12.88;1.98;;;;;;;;;;5051164;28;20053;-79
2022/01/31 07:19:15;;;;;;;14.30;1.75;;;;;;;;;;5017363;28;20045;-79
2022/01/31 07:21:48;;;;;;;12.30;2.13;;;;;;;;;;5033620;28;20111;-79
2022/01/31 07:24:22;;;;;;;25.52;3.55;;;;;;;;;;5033810;28;20144;-79
2022/01/31 07:26:48;;;;;;;14.68;1.77;;;;;;;;;;5033427;28;20056;-79
2022/01/31 07:29:15;;;;;;;19.60;2.78;;;;;;;;;;5017193;28;20045;-79
2022/01/31 07:31:42;;;;;;;18.08;2.78;;;;;;;;;;5033132;28;20470;-80
2022/01/31 07:34:08;;;;;;;11.18;2.03;;;;;;;;;;5016164;28;20041;-80
2022/01/31 07:36:35;;;;;;;13.15;2.42;;;;;;;;;;5033620;28;20052;-79
2022/01/31 07:39:01;;;;;;;26.55;4.40;;;;;;;;;;5033524;28;20095;-79
2022/01/31 07:41:27;;;;;;;34.75;5.07;;;;;;;;;;5033309;28;20044;-79
2022/01/31 07:43:53;;;;;;;22.05;2.95;;;;;;;;;;5016743;28;20044;-80
2022/01/31 07:46:19;;;;;;;21.50;3.83;;;;;;;;;;5033279;28;20045;-79
2022/01/31 07:48:45;;;;;;;13.95;1.85;;;;;;;;;;5033273;28;20178;-78
2022/01/31 07:51:11;;;;;;;6.78;1.13;;;;;;;;;;5033110;28;20486;-80
2022/01/31 07:53:38;;;;;;;10.48;0.93;;;;;;;;;;5016547;28;20045;-80
2022/01/31 07:56:07;;;;;;;8.88;1.70;;;;;;;;;;5032714;28;20129;-80
2022/01/31 07:58:34;;;;;;;26.10;4.15;;;;;;;;;;5032655;28;20063;-80
2022/01/31 08:01:00;;;;;;;13.07;2.17;;;;;;;;;;5033001;28;20049;-80
2022/01/31 08:03:26;;;;;;;6.63;1.20;;;;;;;;;;5032906;28;20045;-80
2022/01/31 08:05:52;;;;;;;6.80;0.88;;;;;;;;;;5016418;28;20040;-80
2022/01/31 08:08:18;;;;;;;6.07;0.80;;;;;;;;;;5033088;28;20083;-80
2022/01/31 08:10:44;;;;;;;19.60;2.85;;;;;;;;;;5033219;28;20045;-80
2022/01/31 08:13:11;;;;;;;8.80;0.95;;;;;;;;;;5032200;28;20590;-79
2022/01/31 08:15:46;;;;;;;17.55;2.08;;;;;;;;;;5032829;28;20045;-79
2022/01/31 08:18:13;;;;;;;9.90;1.23;;;;;;;;;;5016083;28;20048;-79
2022/01/31 08:20:39;;;;;;;8.13;1.10;;;;;;;;;;5032645;28;20072;-80
2022/01/31 08:23:07;;;;;;;11.65;1.23;;;;;;;;;;5032572;28;20075;-80
2022/01/31 08:25:36;;;;;;;8.13;1.20;;;;;;;;;;5032840;28;20460;-79
2022/01/31 08:28:08;;;;;;;55.10;8.07;;;;;;;;;;5032217;28;20056;-80
2022/01/31 08:30:43;;;;;;;10.80;1.55;;;;;;;;;;5032904;28;20409;-80
2022/01/31 08:33:25;;;;;;;8.32;1.92;;;;;;;;;;5032451;28;20083;-80
2022/01/31 08:35:51;;;;;;;13.60;1.65;;;;;;;;;;5016018;28;20048;-80
2022/01/31 08:38:18;;;;;;;8.45;1.33;;;;;;;;;;5032426;28;20393;-80
2022/01/31 08:40:44;;;;;;;12.85;1.65;;;;;;;;;;5016107;28;20834;-80
2022/01/31 08:43:12;;;;;;;10.95;2.30;;;;;;;;;;5032052;28;20411;-79
2022/01/31 08:45:38;;;;;;;18.25;3.03;;;;;;;;;;5015580;28;20045;-80
2022/01/31 08:48:04;;;;;;;13.60;1.77;;;;;;;;;;5015700;28;20048;-80
2022/01/31 08:50:30;;;;;;;41.72;6.22;;;;;;;;;;5032612;28;20478;-80
2022/01/31 08:52:56;;;;;;;14.93;2.72;;;;;;;;;;5015628;28;20083;-79
2022/01/31 08:55:23;;;;;;;13.40;1.80;;;;;;;;;;5032168;28;20468;-80
2022/01/31 08:57:53;;;;;;;12.65;2.53;;;;;;;;;;5032086;28;20064;-79
2022/01/31 09:00:19;;;;;;;9.68;1.60;;;;;;;;;;5032240;28;20044;-79
2022/01/31 09:03:00;;;;;;;16.42;2.63;;;;;;;;;;5032457;28;20379;-79
2022/01/31 09:05:26;;;;;;;14.35;2.00;;;;;;;;;;5032247;28;20045;-79
2022/01/31 09:07:52;;;;;;;17.92;2.70;;;;;;;;;;5032099;28;20106;-79
2022/01/31 09:10:18;;;;;;;9.70;1.98;;;;;;;;;;5032166;28;20849;-79
2022/01/31 09:12:44;;;;;;;27.33;4.70;;;;;;;;;;5031782;28;20106;-79
2022/01/31 09:15:12;;;;;;;28.50;4.78;;;;;;;;;;5032102;28;20045;-79
2022/01/31 09:17:39;;;;;;;18.25;3.15;;;;;;;;;;5015644;28;20045;-79
2022/01/31 09:20:05;;;;;;;13.27;1.95;;;;;;;;;;5015558;28;20041;-79
2022/01/31 09:22:31;;;;;;;15.32;1.90;;;;;;;;;;5032304;28;20060;-79
2022/01/31 09:24:57;;;;;;;11.32;1.67;;;;;;;;;;5031789;28;20048;-79
2022/01/31 09:27:24;;;;;;;56.30;10.88;;;;;;;;;;5031593;28;20056;-79
2022/01/31 09:29:50;;;;;;;13.60;2.42;;;;;;;;;;5032441;28;20055;-79
2022/01/31 09:32:21;;;;;;;6.97;1.40;;;;;;;;;;5032062;28;20045;-79
2022/01/31 09:34:47;;;;;;;11.88;2.17;;;;;;;;;;5032361;28;20061;-79
2022/01/31 09:37:13;;;;;;;10.82;1.50;;;;;;;;;;5031759;28;20123;-79
2022/01/31 09:39:41;;;;;;;21.95;3.47;;;;;;;;;;5031838;28;20124;-79
2022/01/31 09:42:11;;;;;;;11.20;1.77;;;;;;;;;;5031528;28;20092;-79
2022/01/31 09:45:06;;;;;;;9.55;1.50;;;;;;;;;;5032273;28;20316;-79
2022/01/31 09:50:17;;;;;;;13.23;1.63;;;;;;;;;;5032036;28;20112;-79
2022/01/31 09:52:43;;;;;;;5.90;1.20;;;;;;;;;;5031767;28;20449;-79
2022/01/31 09:55:09;;;;;;;7.60;1.55;;;;;;;;;;5031236;28;20044;-79
2022/01/31 09:57:35;;;;;;;13.52;2.85;;;;;;;;;;5050739;28;20049;-79
2022/01/31 10:00:01;;;;;;;10.73;1.50;;;;;;;;;;5035292;28;20052;-79
2022/01/31 10:02:27;;;;;;;8.60;1.20;;;;;;;;;;5018881;28;20292;-79
2022/01/31 10:04:53;;;;;;;11.27;2.42;;;;;;;;;;5035355;28;20490;-79
2022/01/31 10:07:21;;;;;;;8.77;1.50;;;;;;;;;;5019076;28;20094;-79
2022/01/31 10:09:48;;;;;;;20.73;3.20;;;;;;;;;;5034835;28;20049;-78
2022/01/31 10:12:27;;;;;;;9.65;1.70;;;;;;;;;;5035188;28;20048;-79
2022/01/31 10:17:39;;;;;;;11.10;1.98;;;;;;;;;;5034888;28;19929;-78
2022/01/31 10:20:07;;;;;;;93.97;18.08;;;;;;;;;;5035037;28;20041;-79
2022/01/31 10:22:35;;;;;;;17.20;3.15;;;;;;;;;;5035015;28;20486;-79
2022/01/31 10:25:02;;;;;;;29.45;4.55;;;;;;;;;;5034124;28;20079;-79
2022/01/31 10:27:31;;;;;;;37.63;5.55;;;;;;;;;;5034920;28;20061;-79
2022/01/31 10:30:18;;;;;;;75.47;12.43;;;;;;;;;;5034759;28;20056;-79
2022/01/31 10:32:45;;;;;;;11.50;2.53;;;;;;;;;;5034565;28;20591;-78
2022/01/31 10:35:18;;;;;;;66.28;10.13;;;;;;;;;;5034679;28;20052;-78
2022/01/31 10:37:46;;;;;;;15.77;2.88;;;;;;;;;;5034628;28;20056;-78
2022/01/31 10:50:45;;;;;;;17.77;2.20;;;;;;;;;;5034197;28;20060;-79
2022/01/31 10:56:51;;;;;;;23.10;3.20;;;;;;;;;;5053983;28;20056;-79
2022/01/31 10:59:17;;;;;;;;;;;;;;;;;;5072602;28;20044;-79
2022/01/31 11:01:45;;;;;;;23.90;3.42;;;;;;;;;;5072201;28;19924;-80
2022/01/31 11:04:12;;;;;;;22.63;3.97;;;;;;;;;;5072197;28;20067;-79
2022/01/31 11:06:40;;;;;;;17.88;2.97;;;;;;;;;;5072181;28;20124;-79
2022/01/31 11:09:10;;;;;;;20.25;3.22;;;;;;;;;;5053296;28;20061;-78
2022/01/31 11:11:37;;;;;;;15.57;1.98;;;;;;;;;;5054191;28;20508;-79
2022/01/31 11:14:05;;;;;;;102.20;17.40;;;;;;;;;;5037081;28;20052;-79
2022/01/31 11:16:31;;;;;;;16.80;2.25;;;;;;;;;;5037163;28;20090;-78
2022/01/31 11:19:00;;;;;;;13.63;2.50;;;;;;;;;;5072253;28;20094;-78
2022/01/31 11:21:29;;;;;;;12.23;1.85;;;;;;;;;;5037070;28;20048;-78
2022/01/31 11:24:01;;;;;;;28.65;4.90;;;;;;;;;;5071522;28;20049;-77
2022/01/31 11:26:28;;;;;;;18.45;2.33;;;;;;;;;;5053446;28;20052;-78
2022/01/31 11:28:55;;;;;;;13.73;2.45;;;;;;;;;;5053541;28;20090;-77
2022/01/31 11:31:21;;;;;;;19.75;2.90;;;;;;;;;;5053744;28;20123;-79
2022/01/31 11:33:48;;;;;;;26.30;3.42;;;;;;;;;;5053469;28;20083;-79
2022/01/31 11:36:14;;;;;;;17.15;2.67;;;;;;;;;;5036102;28;20091;-79
2022/01/31 11:38:40;;;;;;;33.72;4.70;;;;;;;;;;5071578;28;20432;-77
2022/01/31 11:41:07;;;;;;;29.17;3.47;;;;;;;;;;5053018;28;20456;-78
2022/01/31 11:43:33;;;;;;;26.50;4.80;;;;;;;;;;5053861;28;20080;-78
2022/01/31 11:46:00;;;;;;;29.70;6.15;;;;;;;;;;5053474;28;20112;-80
2022/01/31 11:48:29;;;;;;;55.03;8.57;;;;;;;;;;5053258;28;20052;-77
2022/01/31 11:50:56;;;;;;;55.05;10.57;;;;;;;;;;5052620;28;20076;-77
2022/01/31 11:53:33;;;;;;;32.15;7.15;;;;;;;;;;5052631;28;20136;-77
2022/01/31 11:56:09;;;;;;;25.48;4.90;;;;;;;;;;5052147;28;20053;-78
2022/01/31 11:58:36;;;;;;;20.35;2.85;;;;;;;;;;5071625;28;20057;-78
2022/01/31 12:01:03;;;;;;;9.60;1.30;;;;;;;;;;5052810;28;20051;-78
2022/01/31 12:03:30;;;;;;;9.27;1.38;;;;;;;;;;5036071;28;20490;-78
2022/01/31 12:05:56;;;;;;;26.75;4.60;;;;;;;;;;5052458;28;20456;-78
2022/01/31 12:08:33;;;;;;;17.80;3.65;;;;;;;;;;5070876;28;20053;-78
2022/01/31 12:11:10;;;;;;;20.15;3.67;;;;;;;;;;5053015;28;20060;-78
2022/01/31 12:13:43;;;;;;;13.23;1.73;;;;;;;;;;5036286;28;20052;-78
2022/01/31 12:19:34;;;;;;;10.93;1.80;;;;;;;;;;5026148;28;20048;-78
2022/01/31 12:22:00;;;;;;;12.45;1.80;;;;;;;;;;5052474;28;20061;-78
2022/01/31 12:24:35;;;;;;;46.42;6.80;;;;;;;;;;5052417;28;20544;-78
2022/01/31 12:27:13;;;;;;;21.92;2.70;;;;;;;;;;5052409;28;20139;-78
2022/01/31 12:29:45;;;;;;;24.70;4.93;;;;;;;;;;5035903;28;20529;-78
2022/01/31 12:32:13;;;;;;;13.15;2.00;;;;;;;;;;5052286;28;20481;-78
2022/01/31 12:34:41;;;;;;;38.22;7.15;;;;;;;;;;5052159;28;20118;-77
2022/01/31 12:37:29;;;;;;;22.40;4.35;;;;;;;;;;5052646;28;20389;-78
2022/01/31 12:40:12;;;;;;;17.48;3.05;;;;;;;;;;5052124;28;20080;-78
2022/01/31 12:43:10;;;;;;;18.63;3.65;;;;;;;;;;5052656;28;20067;-78
2022/01/31 12:45:39;;;;;;;12.60;1.55;;;;;;;;;;5052546;28;20420;-78
2022/01/31 12:48:09;;;;;;;17.90;3.20;;;;;;;;;;5052330;28;20048;-79
2022/01/31 12:50:36;;;;;;;23.88;2.97;;;;;;;;;;5051884;28;20070;-78
2022/01/31 12:53:06;;;;;;;29.92;5.53;;;;;;;;;;5051950;28;20044;-78
2022/01/31 12:55:33;;;;;;;19.75;2.60;;;;;;;;;;5052020;28;20053;-78
2022/01/31 12:57:59;;;;;;;9.57;1.90;;;;;;;;;;5049876;28;20049;-78
2022/01/31 13:00:51;;;;;;;13.02;2.03;;;;;;;;;;5049076;28;20044;-78
2022/01/31 13:03:31;;;;;;;17.92;1.88;;;;;;;;;;5064818;28;20064;-76
2022/01/31 13:05:57;;;;;;;13.05;2.22;;;;;;;;;;5052239;28;20049;-76
2022/01/31 13:08:24;;;;;;;10.30;1.80;;;;;;;;;;5070008;28;20043;-76
2022/01/31 13:10:55;;;;;;;22.67;2.58;;;;;;;;;;5052185;28;20079;-76
2022/01/31 13:13:34;;;;;;;18.50;2.55;;;;;;;;;;5045601;28;20058;-76
2022/01/31 13:16:07;;;;;;;15.00;1.80;;;;;;;;;;5043249;28;20041;-77
2022/01/31 13:18:33;;;;;;;15.45;1.83;;;;;;;;;;5046996;28;20060;-76
2022/01/31 13:21:02;;;;;;;14.88;1.73;;;;;;;;;;5035444;28;20044;-76
2022/01/31 13:23:29;;;;;;;19.45;3.05;;;;;;;;;;5043240;28;20557;-77
2022/01/31 13:25:59;;;;;;;20.90;4.20;;;;;;;;;;5039680;28;20488;-77
2022/01/31 13:28:25;;;;;;;22.08;3.22;;;;;;;;;;5031757;28;20102;-77
2022/01/31 13:30:51;;;;;;;22.60;3.25;;;;;;;;;;5032377;28;20048;-76
2022/01/31 13:33:17;;;;;;;14.45;2.28;;;;;;;;;;5051566;28;20544;-76
2022/01/31 13:35:44;;;;;;;23.52;2.75;;;;;;;;;;5035791;28;20048;-76
2022/01/31 13:38:12;;;;;;;55.00;8.07;;;;;;;;;;5035347;28;20041;-77
2022/01/31 13:40:43;;;;;;;25.58;3.60;;;;;;;;;;5060082;28;20044;-76
2022/01/31 13:43:12;;;;;;;8.20;2.13;;;;;;;;;;5043548;28;20044;-76
2022/01/31 13:45:49;;;;;;;;;;;;;;;;;;5055780;28;20049;-76
2022/01/31 13:50:47;;;;;;;29.08;4.32;;;;;;;;;;5055677;28;20404;-76
2022/01/31 13:53:17;;;;;;;31.00;4.38;;;;;;;;;;5038532;28;20079;-76
2022/01/31 13:55:48;;;;;;;22.17;3.22;;;;;;;;;;5038403;28;20520;-76
2022/01/31 13:58:21;;;;;;;16.50;2.38;;;;;;;;;;5055225;28;20059;-76
2022/01/31 14:00:47;;;;;;;11.63;1.65;;;;;;;;;;5055541;28;20040;-77
2022/01/31 14:03:14;;;;;;;5.95;1.20;;;;;;;;;;5038348;28;20438;-78
2022/01/31 14:05:46;;;;;;;13.55;2.20;;;;;;;;;;5055042;28;20045;-78
2022/01/31 14:08:15;;;;;;;52.60;10.15;;;;;;;;;;5038146;28;20041;-78
2022/01/31 14:10:43;;;;;;;15.00;2.22;;;;;;;;;;5038614;28;20048;-78
2022/01/31 14:13:14;;;;;;;16.42;2.45;;;;;;;;;;5055193;28;20393;-78
2022/01/31 14:15:46;;;;;;;13.98;1.98;;;;;;;;;;5054308;28;20104;-78
2022/01/31 14:18:19;;;;;;;105.63;15.52;;;;;;;;;;5072626;28;20052;-78
2022/01/31 14:20:45;;;;;;;33.97;5.57;;;;;;;;;;5054453;28;20044;-78
2022/01/31 14:23:11;;;;;;;26.25;4.03;;;;;;;;;;5054476;28;20131;-78
2022/01/31 14:25:42;;;;;;;12.73;1.90;;;;;;;;;;5037799;28;20378;-77
2022/01/31 14:28:10;;;;;;;20.63;2.75;;;;;;;;;;5054425;28;20048;-78
2022/01/31 14:30:44;;;;;;;24.90;2.70;;;;;;;;;;5054156;28;20053;-77
2022/01/31 14:33:11;;;;;;;26.05;3.45;;;;;;;;;;5054741;28;20045;-77
2022/01/31 14:35:37;;;;;;;24.40;4.13;;;;;;;;;;5054628;28;20401;-78
2022/01/31 14:38:12;;;;;;;21.20;2.50;;;;;;;;;;5054685;28;20048;-78
2022/01/31 14:47:14;;;;;;;14.68;2.58;;;;;;;;;;5054023;28;20052;-77
2022/01/31 14:48:56;;;;;;;41.67;5.75;;;;;;;;;;5054273;28;20505;-78
2022/01/31 14:51:31;;;;;;;38.47;5.70;;;;;;;;;;5053957;28;20040;-78
2022/01/31 14:54:03;;;;;;;40.88;6.68;;;;;;;;;;5054108;28;20048;-78
2022/01/31 14:56:32;;;;;;;21.45;4.13;;;;;;;;;;5053454;28;20052;-78
2022/01/31 14:58:59;;;;;;;18.80;2.60;;;;;;;;;;5053637;28;20056;-79
2022/01/31 15:01:25;;;;;;;20.98;2.88;;;;;;;;;;5053174;28;20051;-78
2022/01/31 15:03:51;;;;;;;26.88;3.65;;;;;;;;;;5054288;28;20048;-80
2022/01/31 15:06:18;;;;;;;20.00;2.70;;;;;;;;;;5053693;28;20401;-80